Time;durP1;ratioP1;P1;durP2;ratioP2;P2;SDS_P1;SDS_P2;PMS_P1;PMS_P2;Temp;Humidity;BMP_temperature;BMP_pressure;BME280_temperature;BME280_humidity;BME280_pressure;Samples;Min_cycle;Max_cycle;Signal;HPM_P1;HPM_P2
2023/01/25 00:02:00;;;;;;;6.97;6.17;;;;;;;3.32;85.92;100956.91;5012090;28;20498;-63
2023/01/25 00:04:27;;;;;;;9.67;6.70;;;;;;;3.44;86.10;100961.25;5012235;28;20501;-63
2023/01/25 00:06:54;;;;;;;7.83;6.57;;;;;;;3.41;86.86;100964.09;5012047;28;20502;-63
2023/01/25 00:09:21;;;;;;;7.17;6.43;;;;;;;3.51;86.38;100965.94;5030925;28;20448;-63
2023/01/25 00:11:49;;;;;;;7.50;6.33;;;;;;;3.26;87.79;100963.47;5031716;28;20490;-63
2023/01/25 00:14:16;;;;;;;6.23;5.73;;;;;;;3.27;88.09;100970.38;5031992;28;20440;-63
2023/01/25 00:16:44;;;;;;;6.77;6.07;;;;;;;3.18;88.62;100955.31;5032013;28;20543;-63
2023/01/25 00:19:11;;;;;;;6.43;5.97;;;;;;;3.27;88.73;100965.13;5021073;28;20575;-63
2023/01/25 00:21:38;;;;;;;7.13;6.43;;;;;;;3.22;89.38;100956.75;5031910;28;20443;-63
2023/01/25 00:24:06;;;;;;;7.67;6.87;;;;;;;3.10;89.05;100956.84;5026246;28;20901;-63
2023/01/25 00:26:34;;;;;;;7.03;6.33;;;;;;;3.22;89.31;100967.25;5032016;28;20807;-63
2023/01/25 00:29:03;;;;;;;6.63;6.03;;;;;;;3.20;89.74;100968.34;5031832;28;20444;-63
2023/01/25 00:31:40;;;;;;;6.77;6.17;;;;;;;3.22;89.76;100959.38;5016406;28;20514;-63
2023/01/25 00:34:37;;;;;;;6.97;6.37;;;;;;;3.27;90.03;100959.88;5030231;28;20506;-63
2023/01/25 00:37:14;;;;;;;7.30;6.60;;;;;;;3.28;89.71;100948.44;5031742;28;20819;-63
2023/01/25 00:39:41;;;;;;;6.20;5.63;;;;;;;3.43;88.96;100963.03;5031624;28;20474;-63
2023/01/25 00:42:10;;;;;;;6.27;5.83;;;;;;;3.40;88.27;100963.28;5029290;28;20435;-65
2023/01/25 00:44:38;;;;;;;5.93;5.53;;;;;;;3.22;88.93;100962.00;5011873;28;20519;-63
2023/01/25 00:47:05;;;;;;;6.10;5.67;;;;;;;3.25;89.08;100963.56;5011599;28;20436;-63
2023/01/25 00:49:32;;;;;;;6.43;5.83;;;;;;;3.28;88.12;100965.97;5011566;28;20945;-64
2023/01/25 00:51:59;;;;;;;5.63;5.17;;;;;;;3.32;87.96;100967.44;5011692;28;20813;-63
2023/01/25 00:54:26;;;;;;;5.20;4.70;;;;;;;3.10;88.08;100968.16;5031381;28;20811;-63
2023/01/25 00:56:55;;;;;;;6.33;5.73;;;;;;;3.27;88.48;100970.38;5031603;28;20440;-63
2023/01/25 00:59:22;;;;;;;5.53;5.03;;;;;;;3.33;88.44;100966.47;5031409;28;20483;-63
2023/01/25 01:01:51;;;;;;;5.43;5.03;;;;;;;3.36;87.10;100959.22;5032130;28;20443;-63
2023/01/25 01:04:18;;;;;;;6.00;5.40;;;;;;;3.40;86.83;100958.03;5015426;28;20968;-63
2023/01/25 01:06:45;;;;;;;5.07;4.67;;;;;;;2.99;87.94;100949.72;5015050;28;20502;-64
2023/01/25 01:09:14;;;;;;;5.03;4.73;;;;;;;3.14;87.73;100960.91;5015163;28;20449;-63
2023/01/25 01:11:41;;;;;;;5.83;5.43;;;;;;;3.12;88.13;100966.28;5025569;28;20507;-64
2023/01/25 01:14:08;;;;;;;5.43;4.97;;;;;;;3.23;87.73;100955.81;5035096;28;20559;-63
2023/01/25 01:16:35;;;;;;;9.53;5.30;;;;;;;3.26;86.98;100947.72;5034756;28;20998;-64
2023/01/25 01:19:03;;;;;;;5.87;5.40;;;;;;;3.09;88.49;100956.00;5034409;28;20479;-64
2023/01/25 01:21:30;;;;;;;6.07;5.43;;;;;;;3.10;88.10;100952.41;5034578;28;20833;-64
2023/01/25 01:23:57;;;;;;;5.93;5.33;;;;;;;3.21;88.45;100943.75;5034709;28;20443;-64
2023/01/25 01:26:24;;;;;;;5.37;4.93;;;;;;;3.20;88.50;100940.31;5034457;28;21027;-63
2023/01/25 01:28:51;;;;;;;5.17;4.77;;;;;;;3.11;88.16;100946.22;5032877;28;20869;-65
2023/01/25 01:31:19;;;;;;;5.90;4.90;;;;;;;3.12;88.72;100940.03;5014728;28;20448;-64
2023/01/25 01:33:49;;;;;;;6.53;5.77;;;;;;;3.09;87.18;100929.75;5015085;28;20487;-63
2023/01/25 01:36:18;;;;;;;6.27;5.30;;;;;;;3.14;87.16;100938.13;5014636;28;20503;-64
2023/01/25 01:38:45;;;;;;;5.33;4.93;;;;;;;2.97;87.99;100935.06;5014886;28;20484;-63
2023/01/25 01:41:12;;;;;;;5.77;5.27;;;;;;;2.91;88.67;100941.63;5014746;28;20441;-63
2023/01/25 01:43:39;;;;;;;5.30;4.93;;;;;;;2.98;87.90;100931.50;5014389;28;20449;-64
2023/01/25 01:46:13;;;;;;;4.93;4.53;;;;;;;2.99;88.02;100941.84;5019194;28;20518;-64
2023/01/25 01:48:44;;;;;;;4.53;4.23;;;;;;;3.02;88.27;100933.78;5034326;28;20483;-64
2023/01/25 01:51:18;;;;;;;4.50;4.20;;;;;;;2.97;87.34;100935.91;5032662;28;20497;-64
2023/01/25 01:53:49;;;;;;;5.17;4.87;;;;;;;3.04;87.49;100941.53;5018322;28;20951;-64
2023/01/25 01:56:21;;;;;;;4.60;4.20;;;;;;;3.14;86.75;100930.25;5014732;28;20494;-63
2023/01/25 01:58:50;;;;;;;5.17;4.77;;;;;;;3.12;86.53;100934.78;5014272;28;20519;-63
2023/01/25 02:01:19;;;;;;;4.63;4.33;;;;;;;3.02;86.95;100940.81;5014029;28;20503;-63
2023/01/25 02:03:46;;;;;;;5.70;5.20;;;;;;;3.06;86.85;100934.41;5014119;28;20480;-64
2023/01/25 02:06:15;;;;;;;5.17;4.77;;;;;;;3.07;87.51;100936.06;5013914;28;20437;-64
2023/01/25 02:08:44;;;;;;;5.10;4.70;;;;;;;2.84;87.47;100931.66;5015125;28;20920;-64
2023/01/25 02:11:12;;;;;;;5.53;5.23;;;;;;;2.85;87.28;100933.31;5014181;28;20514;-64
2023/01/25 02:13:39;;;;;;;4.93;4.63;;;;;;;3.00;87.89;100919.94;5013307;28;20437;-65
2023/01/25 02:16:14;;;;;;;4.80;4.27;;;;;;;2.82;87.16;100930.94;5013939;28;20480;-63
2023/01/25 02:18:40;;;;;;;4.67;4.37;;;;;;;2.61;88.38;100922.03;5013436;28;20893;-64
2023/01/25 02:21:07;;;;;;;5.63;5.10;;;;;;;2.64;88.36;100917.38;4994437;28;20438;-63
2023/01/25 02:23:42;;;;;;;5.57;5.17;;;;;;;2.68;88.53;100920.59;5001614;28;20507;-64
2023/01/25 02:26:11;;;;;;;4.73;4.43;;;;;;;2.78;88.38;100921.63;5033575;28;20511;-63
2023/01/25 02:28:42;;;;;;;4.40;4.10;;;;;;;2.79;87.90;100916.28;5033320;28;20836;-64
2023/01/25 02:31:09;;;;;;;4.80;4.50;;;;;;;2.87;88.06;100926.19;5013405;28;20883;-64
2023/01/25 02:33:36;;;;;;;5.40;5.10;;;;;;;2.88;87.74;100930.47;5011378;28;20453;-64
2023/01/25 02:36:19;;;;;;;5.47;4.93;;;;;;;2.89;87.43;100929.53;5012019;28;20959;-64
2023/01/25 02:38:51;;;;;;;5.10;4.70;;;;;;;3.03;87.63;100930.19;5013533;28;20464;-65
2023/01/25 02:41:24;;;;;;;5.37;4.90;;;;;;;3.02;87.58;100936.41;5033316;28;20522;-64
2023/01/25 02:43:51;;;;;;;5.47;5.00;;;;;;;3.04;86.72;100926.63;5033378;28;20496;-63
2023/01/25 02:46:24;;;;;;;4.87;4.47;;;;;;;3.14;86.95;100922.38;5033195;28;20440;-64
2023/01/25 02:48:51;;;;;;;4.33;4.03;;;;;;;3.27;86.09;100928.38;5032789;28;20498;-64
2023/01/25 02:51:18;;;;;;;4.90;4.60;;;;;;;3.34;85.75;100926.97;5032588;28;20884;-64
2023/01/25 02:53:45;;;;;;;5.27;4.87;;;;;;;3.37;85.14;100924.13;5033090;28;20440;-64
2023/01/25 02:56:12;;;;;;;5.03;4.63;;;;;;;3.18;84.54;100909.88;5032694;28;21002;-64
2023/01/25 02:58:40;;;;;;;4.90;4.60;;;;;;;3.29;85.28;100926.47;5032924;28;20498;-64
2023/01/25 03:01:06;;;;;;;4.57;4.27;;;;;;;3.34;84.84;100932.22;5014219;28;20441;-64
2023/01/25 03:03:33;;;;;;;5.93;4.40;;;;;;;3.35;84.32;100936.50;5013182;28;20445;-64
2023/01/25 03:06:00;;;;;;;4.53;4.23;;;;;;;3.38;83.55;100923.16;5012732;28;20440;-64
2023/01/25 03:08:27;;;;;;;4.43;4.13;;;;;;;3.35;83.86;100936.50;5012832;28;20432;-64
2023/01/25 03:10:57;;;;;;;4.60;4.17;;;;;;;3.47;83.69;100940.84;5012565;28;20441;-64
2023/01/25 03:13:24;;;;;;;4.57;4.27;;;;;;;3.55;83.31;100938.47;5012927;28;20902;-64
2023/01/25 03:15:52;;;;;;;4.40;4.07;;;;;;;3.46;82.41;100933.91;5012756;28;20923;-63
2023/01/25 03:18:19;;;;;;;4.77;4.47;;;;;;;3.47;82.18;100935.59;5013048;28;20428;-64
2023/01/25 03:20:45;;;;;;;4.03;3.70;;;;;;;3.33;82.41;100933.19;5026522;28;21006;-64
2023/01/25 03:23:12;;;;;;;4.23;3.87;;;;;;;3.21;83.06;100933.25;5032298;28;20947;-63
2023/01/25 03:25:39;;;;;;;3.80;3.60;;;;;;;3.29;83.18;100931.72;5032426;28;20497;-64
2023/01/25 03:28:06;;;;;;;4.33;4.03;;;;;;;3.17;82.90;100926.53;5032478;28;20448;-64
2023/01/25 03:30:32;;;;;;;5.03;4.73;;;;;;;3.18;83.28;100923.81;5019641;28;20480;-65
2023/01/25 03:33:00;;;;;;;4.27;3.53;;;;;;;3.01;82.48;100921.59;5013067;28;20453;-63
2023/01/25 03:35:27;;;;;;;4.50;4.23;;;;;;;2.95;82.70;100932.56;5012328;28;20503;-63
2023/01/25 03:37:54;;;;;;;4.43;4.13;;;;;;;2.93;83.70;100913.47;5012681;28;20499;-63
2023/01/25 03:40:20;;;;;;;4.00;3.67;;;;;;;3.00;83.08;100925.19;5012484;28;20476;-64
2023/01/25 03:42:47;;;;;;;4.43;4.13;;;;;;;3.02;83.21;100925.91;5018288;28;20510;-63
2023/01/25 03:45:14;;;;;;;4.40;4.13;;;;;;;2.92;83.38;100929.31;5032206;28;20439;-62
2023/01/25 03:47:41;;;;;;;4.60;4.30;;;;;;;2.94;83.08;100930.88;5031940;28;21013;-63
2023/01/25 03:50:10;;;;;;;3.97;3.77;;;;;;;2.98;82.46;100926.25;5031838;28;20967;-63
2023/01/25 03:52:49;;;;;;;4.03;3.73;;;;;;;3.04;82.90;100937.13;5023956;28;20482;-63
2023/01/25 03:55:16;;;;;;;4.07;3.77;;;;;;;2.93;82.79;100944.09;5010432;28;20440;-63
2023/01/25 03:57:43;;;;;;;4.80;4.37;;;;;;;2.84;82.58;100924.63;5011198;28;20449;-63
2023/01/25 04:00:11;;;;;;;4.67;4.37;;;;;;;3.05;81.97;100933.56;5012308;28;20502;-63
2023/01/25 04:02:38;;;;;;;4.27;3.90;;;;;;;3.08;81.82;100938.59;5018927;28;20443;-63
2023/01/25 04:05:06;;;;;;;4.73;4.33;;;;;;;3.13;80.98;100938.22;5031679;28;20443;-62
2023/01/25 04:07:34;;;;;;;7.10;5.23;;;;;;;3.04;81.69;100947.63;5031750;28;20939;-63
2023/01/25 04:10:00;;;;;;;5.33;3.90;;;;;;;3.10;81.11;100936.66;5032307;28;20462;-63
2023/01/25 04:12:27;;;;;;;4.83;4.43;;;;;;;3.14;81.35;100942.53;5026559;28;20440;-63
2023/01/25 04:14:54;;;;;;;4.37;3.67;;;;;;;3.15;80.77;100947.66;5012283;28;20449;-63
2023/01/25 04:17:20;;;;;;;4.83;4.53;;;;;;;3.01;81.46;100944.38;5012445;28;20476;-63
2023/01/25 04:19:47;;;;;;;4.07;3.77;;;;;;;3.11;81.01;100940.13;5011795;28;20987;-63
2023/01/25 04:22:14;;;;;;;4.70;4.37;;;;;;;3.20;80.77;100942.06;5012415;28;20456;-63
2023/01/25 04:24:42;;;;;;;5.00;4.63;;;;;;;3.28;81.18;100945.81;5022900;28;20462;-63
2023/01/25 04:27:09;;;;;;;4.73;4.30;;;;;;;3.28;80.67;100940.56;5031496;28;20436;-63
2023/01/25 04:29:36;;;;;;;4.07;3.73;;;;;;;3.17;81.21;100943.16;5031781;28;20885;-63
2023/01/25 04:32:02;;;;;;;4.33;4.03;;;;;;;3.24;80.98;100943.53;5012639;28;20444;-63
2023/01/25 04:34:29;;;;;;;4.53;3.60;;;;;;;3.20;80.80;100942.06;5031853;28;20501;-63
2023/01/25 04:36:56;;;;;;;3.60;3.40;;;;;;;3.22;81.34;100950.66;5032775;28;20448;-62
2023/01/25 04:39:22;;;;;;;3.93;3.63;;;;;;;3.27;81.26;100949.38;5035302;28;20521;-63
2023/01/25 04:41:50;;;;;;;5.80;4.37;;;;;;;3.38;81.90;100956.44;5034352;28;20876;-63
2023/01/25 04:44:17;;;;;;;4.03;3.83;;;;;;;3.47;80.80;100950.53;5035562;28;20501;-63
2023/01/25 04:46:44;;;;;;;4.17;3.83;;;;;;;3.42;81.07;100958.75;5035647;28;20521;-63
2023/01/25 04:49:10;;;;;;;4.10;3.80;;;;;;;3.37;81.54;100950.38;5035735;28;20443;-63
2023/01/25 04:51:37;;;;;;;4.93;4.43;;;;;;;3.35;82.29;100951.44;5024453;28;20514;-63
2023/01/25 04:54:04;;;;;;;9.07;4.70;;;;;;;3.09;82.86;100945.50;5015426;28;20444;-64
2023/01/25 04:56:30;;;;;;;5.07;4.57;;;;;;;2.96;83.80;100949.97;5015630;28;20496;-63
2023/01/25 04:58:58;;;;;;;6.00;4.60;;;;;;;3.09;83.55;100942.88;5015519;28;20560;-63
2023/01/25 05:01:25;;;;;;;5.13;4.80;;;;;;;3.14;83.54;100940.75;5022874;28;20529;-63
2023/01/25 05:03:52;;;;;;;5.10;4.70;;;;;;;3.15;83.48;100945.03;5034873;28;21001;-63
2023/01/25 05:06:18;;;;;;;4.20;3.93;;;;;;;3.03;82.18;100945.94;5035059;28;20506;-62
2023/01/25 05:08:45;;;;;;;6.43;4.37;;;;;;;2.81;83.38;100943.22;5035090;28;20505;-63
2023/01/25 05:11:12;;;;;;;11.20;4.80;;;;;;;2.91;83.77;100946.88;5027122;28;20445;-63
2023/01/25 05:13:38;;;;;;;5.50;5.00;;;;;;;2.96;83.70;100949.97;5014917;28;20794;-63
2023/01/25 05:16:07;;;;;;;5.30;4.83;;;;;;;3.03;83.60;100960.88;5014847;28;20468;-63
2023/01/25 05:18:34;;;;;;;6.37;5.27;;;;;;;2.87;83.34;100965.56;5015077;28;20889;-66
2023/01/25 05:21:00;;;;;;;5.43;4.70;;;;;;;2.95;83.27;100961.44;5014583;28;20534;-63
2023/01/25 05:23:27;;;;;;;5.33;4.33;;;;;;;2.94;82.79;100967.59;5014941;28;20448;-62
2023/01/25 05:28:38;;;;;;;6.27;5.60;;;;;;;3.09;82.78;100966.50;5014991;28;20412;-63
2023/01/25 05:31:06;;;;;;;5.30;4.80;;;;;;;3.07;82.32;100964.94;5019202;28;20876;-62
2023/01/25 05:33:33;;;;;;;7.00;5.93;;;;;;;3.03;82.37;100969.56;5034344;28;20490;-62
2023/01/25 05:36:00;;;;;;;5.67;5.17;;;;;;;3.08;81.86;100964.84;5034087;28;20450;-62
2023/01/25 05:38:28;;;;;;;7.73;5.80;;;;;;;3.20;81.94;100977.06;5034487;28;20497;-62
2023/01/25 05:40:58;;;;;;;6.47;4.13;;;;;;;3.21;81.11;100973.47;5033195;28;20471;-63
2023/01/25 05:43:24;;;;;;;5.30;4.90;;;;;;;3.17;80.71;100974.66;5034293;28;20439;-63
2023/01/25 05:45:53;;;;;;;5.10;4.80;;;;;;;3.13;80.17;100975.81;5034251;28;20440;-63
2023/01/25 05:48:21;;;;;;;6.60;5.00;;;;;;;3.04;80.48;100978.28;5023998;28;20519;-63
2023/01/25 05:50:47;;;;;;;5.73;4.93;;;;;;;3.04;79.87;100978.28;5014016;28;20463;-63
2023/01/25 05:53:14;;;;;;;5.77;5.23;;;;;;;3.07;79.91;100976.25;5014397;28;20445;-64
2023/01/25 05:55:41;;;;;;;7.10;6.30;;;;;;;3.10;79.17;100981.28;5014013;28;20840;-63
2023/01/25 05:58:08;;;;;;;5.80;5.30;;;;;;;3.22;79.88;100987.41;5020445;28;20440;-66
2023/01/25 06:00:35;;;;;;;12.93;8.13;;;;;;;3.25;79.01;100989.81;5032451;28;20479;-64
2023/01/25 06:03:01;;;;;;;6.50;5.90;;;;;;;3.31;78.45;100990.22;5013830;28;20842;-64
2023/01/25 06:05:30;;;;;;;8.17;4.83;;;;;;;3.28;78.72;100985.22;5013912;28;20452;-64
2023/01/25 06:07:58;;;;;;;5.23;4.80;;;;;;;3.19;78.87;100983.22;5018591;28;20439;-63
2023/01/25 06:10:25;;;;;;;5.93;5.47;;;;;;;3.27;79.09;100980.88;5033321;28;20471;-62
2023/01/25 06:12:57;;;;;;;9.57;5.13;;;;;;;3.29;78.44;100984.25;5033560;28;20448;-63
2023/01/25 06:15:24;;;;;;;5.47;4.97;;;;;;;3.34;77.73;100984.72;5032751;28;20452;-64
2023/01/25 06:17:54;;;;;;;24.30;8.97;;;;;;;3.14;78.40;100982.75;5032215;28;20444;-69
2023/01/25 06:20:21;;;;;;;12.93;9.20;;;;;;;3.02;78.71;100975.75;5032523;28;20611;-70
2023/01/25 06:22:51;;;;;;;10.63;7.67;;;;;;;3.04;78.48;100979.13;5024074;28;20499;-69
2023/01/25 06:25:18;;;;;;;7.63;6.27;;;;;;;2.97;79.22;100979.66;5013926;28;20495;-70
2023/01/25 06:27:44;;;;;;;6.73;6.07;;;;;;;2.98;78.93;100976.94;5013991;28;20535;-69
2023/01/25 06:30:12;;;;;;;11.83;5.53;;;;;;;3.14;78.28;100974.88;5020668;28;20445;-68
2023/01/25 06:32:39;;;;;;;6.33;5.73;;;;;;;3.18;78.23;100981.56;5017227;28;20436;-68
2023/01/25 06:35:06;;;;;;;6.97;6.27;;;;;;;3.17;78.17;100990.41;5032371;28;20947;-71
2023/01/25 06:37:32;;;;;;;13.83;6.73;;;;;;;3.20;78.46;100992.81;5032116;28;20509;-69
2023/01/25 06:40:00;;;;;;;10.47;6.07;;;;;;;3.30;78.12;100993.78;5032611;28;20832;-69
2023/01/25 06:42:27;;;;;;;7.70;7.00;;;;;;;3.23;77.35;100991.75;5022002;28;20445;-64
2023/01/25 06:44:54;;;;;;;6.00;5.43;;;;;;;3.11;77.07;100985.59;5015125;28;20452;-74
2023/01/25 06:47:21;;;;;;;8.43;7.63;;;;;;;3.00;78.24;100982.06;5014465;28;20870;-72
2023/01/25 06:49:47;;;;;;;5.43;4.90;;;;;;;3.11;77.88;100980.34;5008547;28;20979;-71
2023/01/25 06:52:14;;;;;;;8.60;7.80;;;;;;;3.23;77.58;100984.69;5010340;28;20507;-71
2023/01/25 06:54:41;;;;;;;12.27;7.00;;;;;;;3.27;77.00;100985.31;5011824;28;20526;-69
2023/01/25 06:57:10;;;;;;;7.77;6.97;;;;;;;3.36;77.25;100980.22;5010290;28;20510;-71
2023/01/25 06:59:37;;;;;;;6.50;5.83;;;;;;;3.40;75.92;100994.81;5012176;28;20436;-72
2023/01/25 07:02:04;;;;;;;7.40;6.70;;;;;;;3.41;76.71;100991.22;5012021;28;20538;-70
2023/01/25 07:04:32;;;;;;;9.03;6.43;;;;;;;3.30;76.77;100990.31;5010894;28;20498;-71
2023/01/25 07:06:58;;;;;;;11.13;6.27;;;;;;;3.27;77.16;100980.88;5017276;28;20804;-72
2023/01/25 07:09:25;;;;;;;11.83;7.60;;;;;;;3.27;77.05;100988.75;5009204;28;20488;-69
2023/01/25 07:11:52;;;;;;;8.00;7.30;;;;;;;3.39;76.96;100985.22;5009085;28;21122;-71
2023/01/25 07:14:20;;;;;;;7.10;6.47;;;;;;;3.43;77.24;101002.44;5006740;28;20804;-70
2023/01/25 07:16:46;;;;;;;7.70;6.90;;;;;;;3.37;76.40;100981.88;5012470;28;20848;-68
2023/01/25 07:19:13;;;;;;;9.00;8.10;;;;;;;3.41;77.51;100996.47;5012048;28;20499;-71
2023/01/25 07:21:40;;;;;;;10.90;9.80;;;;;;;3.36;77.51;100995.13;5006709;28;20476;-69
2023/01/25 07:24:07;;;;;;;15.47;10.10;;;;;;;3.39;77.38;100993.09;4991261;28;20449;-71
2023/01/25 07:26:34;;;;;;;8.93;8.13;;;;;;;3.47;77.29;100988.13;4993149;28;20440;-73
2023/01/25 07:29:00;;;;;;;11.83;9.20;;;;;;;3.63;77.08;100999.16;4982851;28;20449;-71
2023/01/25 07:31:29;;;;;;;8.20;7.40;;;;;;;3.63;75.76;100999.16;4992338;28;20441;-71
2023/01/25 07:33:57;;;;;;;8.60;7.03;;;;;;;3.65;77.01;101007.78;4993003;28;20446;-69
2023/01/25 07:36:23;;;;;;;6.33;5.83;;;;;;;3.62;76.14;101000.13;5001539;28;20438;-72
2023/01/25 07:38:53;;;;;;;8.77;6.30;;;;;;;3.52;75.37;101007.00;4994888;28;20499;-72
2023/01/25 07:41:20;;;;;;;7.93;5.63;;;;;;;3.37;75.54;101012.56;5012665;28;20480;-71
2023/01/25 07:43:47;;;;;;;7.90;7.20;;;;;;;3.38;75.67;101014.22;5012197;28;20444;-69
2023/01/25 07:46:14;;;;;;;9.30;8.17;;;;;;;3.28;75.91;101008.84;5000665;28;20446;-70
2023/01/25 07:48:47;;;;;;;13.20;8.17;;;;;;;3.32;75.71;101005.03;4992363;28;20900;-71
2023/01/25 07:51:21;;;;;;;6.80;6.17;;;;;;;3.34;76.10;101008.38;4973199;28;21002;-69
2023/01/25 07:53:50;;;;;;;12.47;6.17;;;;;;;3.38;75.78;101015.06;4973350;28;20945;-71
2023/01/25 07:56:17;;;;;;;8.73;5.90;;;;;;;3.38;75.59;101015.06;4974000;28;20525;-73
2023/01/25 07:58:44;;;;;;;11.50;6.63;;;;;;;3.48;76.27;101010.81;4992346;28;20536;-70
2023/01/25 08:01:12;;;;;;;8.70;7.00;;;;;;;3.59;75.49;101013.47;4992271;28;20477;-70
2023/01/25 08:03:39;;;;;;;6.13;5.50;;;;;;;3.42;74.66;100994.66;4992316;28;20961;-70
2023/01/25 08:06:09;;;;;;;6.83;5.50;;;;;;;3.50;73.85;101022.03;4992692;28;20504;-71
2023/01/25 08:08:38;;;;;;;6.10;5.53;;;;;;;3.31;74.56;101008.59;5003454;28;20805;-70
2023/01/25 08:11:09;;;;;;;6.33;5.73;;;;;;;3.46;74.68;101017.97;5003776;28;20449;-69
2023/01/25 08:13:36;;;;;;;6.23;5.67;;;;;;;3.42;74.55;101021.78;4995873;28;20440;-70
2023/01/25 08:16:03;;;;;;;8.17;5.90;;;;;;;3.58;74.78;101019.69;5005037;28;20480;-69
2023/01/25 08:18:29;;;;;;;11.47;7.23;;;;;;;3.69;73.49;101016.25;5015709;28;20825;-69
2023/01/25 08:20:58;;;;;;;7.87;5.80;;;;;;;3.78;73.45;101015.56;5000055;28;20469;-73
2023/01/25 08:23:26;;;;;;;7.53;6.33;;;;;;;3.62;73.28;101020.28;4996030;28;20442;-70
2023/01/25 08:25:53;;;;;;;6.47;5.57;;;;;;;3.58;73.23;101037.22;4996037;28;20442;-70
2023/01/25 08:28:20;;;;;;;9.47;5.70;;;;;;;3.56;74.42;101032.09;4996134;28;20445;-70
2023/01/25 08:30:46;;;;;;;8.03;6.10;;;;;;;3.69;77.15;101011.84;4999364;28;20457;-70
2023/01/25 08:33:13;;;;;;;13.73;9.13;;;;;;;3.71;74.53;101033.56;5009244;28;20522;-69
2023/01/25 08:35:40;;;;;;;12.43;8.17;;;;;;;3.80;74.30;101017.09;5015915;28;20580;-71
2023/01/25 08:38:06;;;;;;;6.80;6.07;;;;;;;3.90;73.01;101026.00;4998382;28;20434;-70
2023/01/25 08:40:34;;;;;;;7.90;5.90;;;;;;;3.85;72.80;101036.00;4995895;28;20528;-72
2023/01/25 08:43:01;;;;;;;5.07;4.50;;;;;;;3.76;72.20;101031.44;4995420;28;20858;-70
2023/01/25 08:45:33;;;;;;;8.47;5.80;;;;;;;3.55;73.17;101027.78;4995994;28;20441;-69
2023/01/25 08:47:59;;;;;;;7.43;5.77;;;;;;;3.64;73.96;101029.72;5001971;28;20428;-69
2023/01/25 08:50:26;;;;;;;7.93;6.10;;;;;;;3.64;73.77;101023.66;5015699;28;20502;-69
2023/01/25 08:52:53;;;;;;;6.67;6.13;;;;;;;3.58;73.18;101019.69;5015587;28;20456;-70
2023/01/25 08:55:19;;;;;;;9.37;8.30;;;;;;;3.63;73.83;101020.16;4997279;28;20508;-70
2023/01/25 08:57:48;;;;;;;9.37;8.40;;;;;;;3.66;73.09;101017.31;4996949;28;20957;-70
2023/01/25 09:00:16;;;;;;;7.13;6.53;;;;;;;3.67;73.15;101026.88;5011373;28;20453;-70
2023/01/25 09:02:42;;;;;;;7.23;6.67;;;;;;;3.83;73.63;101016.03;4995146;28;20945;-72
2023/01/25 09:05:10;;;;;;;7.53;6.83;;;;;;;3.81;73.51;101018.81;4995270;28;20472;-71
2023/01/25 09:07:37;;;;;;;13.47;8.70;;;;;;;3.91;73.96;101008.41;4995544;28;20437;-71
2023/01/25 09:10:07;;;;;;;12.13;7.83;;;;;;;4.06;72.98;101010.72;4976490;28;20454;-69
2023/01/25 09:12:34;;;;;;;9.30;6.07;;;;;;;3.99;72.65;101004.25;4975930;28;20958;-69
2023/01/25 09:15:02;;;;;;;13.07;7.13;;;;;;;4.10;73.44;100996.38;4977214;28;20489;-71
2023/01/25 09:17:31;;;;;;;10.07;5.83;;;;;;;4.20;72.26;101013.13;4976963;28;20514;-69
2023/01/25 09:19:58;;;;;;;11.00;6.17;;;;;;;4.14;72.23;100986.47;4986474;28;20848;-70
2023/01/25 09:22:24;;;;;;;9.00;5.87;;;;;;;4.04;73.43;100993.41;4995299;28;20535;-69
2023/01/25 09:24:52;;;;;;;7.20;5.87;;;;;;;4.18;73.02;100996.63;4995382;28;20442;-70
2023/01/25 09:27:19;;;;;;;6.97;6.37;;;;;;;4.21;73.11;100995.56;5005272;28;20976;-70
2023/01/25 09:29:46;;;;;;;6.93;6.23;;;;;;;4.12;72.95;100997.09;5013448;28;20445;-69
2023/01/25 09:32:14;;;;;;;5.97;5.47;;;;;;;4.10;73.43;100991.13;4994027;28;20445;-70
2023/01/25 09:34:41;;;;;;;12.77;7.03;;;;;;;4.10;73.93;100982.41;4992242;28;20450;-71
2023/01/25 09:37:07;;;;;;;15.57;8.40;;;;;;;4.25;73.11;100974.13;4998031;28;20198;-71
2023/01/25 09:39:34;;;;;;;10.70;6.10;;;;;;;4.29;72.51;100967.69;4995185;28;20434;-70
2023/01/25 09:42:21;;;;;;;16.30;7.50;;;;;;;4.34;72.85;100965.53;5003383;28;20480;-70
2023/01/25 09:45:10;;;;;;;17.40;11.47;;;;;;;4.46;72.69;100950.59;4999968;28;20441;-71
2023/01/25 09:47:45;;;;;;;12.07;5.93;;;;;;;4.49;72.16;100959.06;5014617;28;20421;-69
2023/01/25 09:50:29;;;;;;;20.93;7.67;;;;;;;4.38;72.47;100956.44;5005159;28;20827;-68
2023/01/25 09:53:20;;;;;;;9.80;6.20;;;;;;;4.45;72.59;100952.38;5004143;28;20449;-69
2023/01/25 09:55:52;;;;;;;8.40;5.20;;;;;;;4.40;72.56;100953.69;4994607;28;20853;-70
2023/01/25 09:58:21;;;;;;;8.37;6.30;;;;;;;4.50;72.80;100954.66;4994864;28;20449;-70
2023/01/25 10:00:53;;;;;;;6.57;5.97;;;;;;;4.52;72.35;100948.31;4995958;28;20194;-69
2023/01/25 10:03:27;;;;;;;8.47;6.13;;;;;;;4.62;72.37;100949.22;4998449;28;20448;-71
2023/01/25 10:05:58;;;;;;;9.00;5.47;;;;;;;4.67;72.21;100938.34;4994799;28;20453;-68
2023/01/25 10:08:30;;;;;;;9.03;5.93;;;;;;;4.78;71.98;100938.31;4995909;28;20937;-69
2023/01/25 10:11:02;;;;;;;6.00;5.53;;;;;;;4.76;71.63;100935.81;4995240;28;20952;-71
2023/01/25 10:13:30;;;;;;;10.93;6.07;;;;;;;4.82;71.96;100929.22;4994590;28;20191;-70
2023/01/25 10:16:02;;;;;;;5.67;5.20;;;;;;;4.58;71.92;100918.84;4995610;28;20322;-71
2023/01/25 10:18:35;;;;;;;6.17;5.57;;;;;;;4.63;71.12;100929.03;4994120;28;20191;-72
2023/01/25 10:21:05;;;;;;;7.93;7.13;;;;;;;4.64;71.61;100921.00;4997927;28;20187;-70
2023/01/25 10:24:08;;;;;;;7.30;6.67;;;;;;;4.67;71.46;100904.97;4994401;28;20186;-73
2023/01/25 10:26:37;;;;;;;8.80;5.70;;;;;;;4.62;71.75;100909.75;4973402;28;20446;-73
2023/01/25 10:29:11;;;;;;;5.83;5.33;;;;;;;4.55;71.26;100905.97;4974966;28;20258;-73
2023/01/25 10:31:44;;;;;;;9.27;5.80;;;;;;;4.56;71.67;100897.09;4990147;28;20991;-74
2023/01/25 10:34:19;;;;;;;7.63;5.40;;;;;;;4.74;72.02;100895.59;5003500;28;20190;-69
2023/01/25 10:36:48;;;;;;;6.50;5.93;;;;;;;4.57;72.15;100890.88;4992875;28;20449;-70
2023/01/25 10:39:15;;;;;;;6.40;5.23;;;;;;;4.66;71.73;100886.69;4990814;28;20813;-68
2023/01/25 10:41:45;;;;;;;5.93;5.43;;;;;;;4.47;71.83;100887.34;4992720;28;20859;-70
2023/01/25 10:44:22;;;;;;;6.03;5.43;;;;;;;4.43;72.48;100875.38;4993158;28;20229;-70
2023/01/25 10:46:55;;;;;;;5.73;5.33;;;;;;;4.49;71.87;100880.13;4993938;28;20297;-69
2023/01/25 10:49:27;;;;;;;6.70;5.80;;;;;;;4.62;71.60;100878.19;4994131;28;20860;-70
2023/01/25 10:51:54;;;;;;;7.23;5.37;;;;;;;4.71;71.63;100873.97;4994023;28;20205;-71
2023/01/25 10:54:23;;;;;;;6.30;5.53;;;;;;;4.85;71.33;100864.00;4996275;28;20444;-76
2023/01/25 10:56:50;;;;;;;6.63;5.80;;;;;;;4.83;71.80;100871.16;4995264;28;20290;-73
2023/01/25 10:59:24;;;;;;;7.37;6.33;;;;;;;4.77;71.23;100873.47;4998464;28;20200;-74
2023/01/25 11:01:51;;;;;;;12.03;7.60;;;;;;;4.78;71.04;100870.72;5000068;28;20469;-74
2023/01/25 11:04:31;;;;;;;7.87;5.63;;;;;;;4.90;70.72;100863.63;4991093;28;20607;-72
2023/01/25 11:06:59;;;;;;;4.60;4.30;;;;;;;4.98;70.43;100862.00;4990010;28;20190;-73
2023/01/25 11:09:34;;;;;;;17.93;11.70;;;;;;;5.00;70.54;100854.84;4990231;28;20253;-73
2023/01/25 11:12:03;;;;;;;8.33;7.37;;;;;;;4.55;71.66;100850.72;4991631;28;20425;-71
2023/01/25 11:14:32;;;;;;;6.10;5.50;;;;;;;4.66;71.05;100845.38;4991752;28;20733;-71
2023/01/25 11:17:00;;;;;;;6.03;5.47;;;;;;;4.77;71.56;100844.50;4990769;28;20485;-71
2023/01/25 11:19:33;;;;;;;4.13;3.73;;;;;;;5.00;75.20;100827.66;4991476;28;20201;-70
2023/01/25 11:22:03;;;;;;;7.43;6.20;;;;;;;5.33;72.92;100833.56;4991108;28;20210;-71
2023/01/25 11:24:31;;;;;;;5.70;5.23;;;;;;;5.37;70.39;100842.88;4991388;28;20620;-70
2023/01/25 11:27:20;;;;;;;8.17;6.20;;;;;;;5.40;69.83;100837.31;4991447;28;20198;-71
2023/01/25 11:30:07;;;;;;;7.47;6.07;;;;;;;5.38;69.35;100826.09;4991147;28;20191;-72
2023/01/25 11:32:34;;;;;;;6.70;5.17;;;;;;;5.24;69.32;100825.59;4991914;28;20257;-72
2023/01/25 11:35:03;;;;;;;9.23;7.27;;;;;;;4.93;70.87;100819.44;4992300;28;20190;-73
2023/01/25 11:37:43;;;;;;;14.83;9.40;;;;;;;4.97;70.01;100818.22;4991367;28;20206;-72
2023/01/25 11:40:17;;;;;;;8.13;6.97;;;;;;;4.97;70.65;100815.59;4991484;28;20874;-73
2023/01/25 11:42:58;;;;;;;6.43;5.83;;;;;;;4.88;70.75;100821.63;4991507;28;20215;-66